.
WxDataArchive / Data Records for 2011-05-01
2011-04-30 May 2011 2011-05-02

Data Records for Sunday, 01 May 2011

Time	Temp	Chill	HIndex	Humid	Dewpt	 Wind 	HiWind	WindDir	Rain 	Barom 
-----	----	-----	------	-----	-----	------	------	-------	-----	----- 
00:00	60.4	60.4	60.4	54	43.7	1	3	90	0.00	29.905 
00:05	60.2	60.2	60.2	54	43.5	1	3	112	0.00	29.905 
00:10	60.2	60.2	60.2	53	43.0	1	4	112	0.00	29.905 
00:15	60.2	60.2	60.2	53	43.0	1	3	112	0.00	29.901 
00:20	60.4	60.4	60.4	53	43.2	0	2	112	0.00	29.901 
00:25	60.4	60.4	60.4	53	43.2	1	4	135	0.00	29.901 
00:30	60.4	60.4	60.4	53	43.2	1	2	90	0.00	29.895 
00:35	60.2	60.2	60.2	54	43.5	0	2	90	0.00	29.895 
00:40	60.2	60.2	60.2	53	43.0	1	3	90	0.00	29.895 
00:45	60.2	60.2	60.2	54	43.5	1	3	90	0.00	29.895 
00:50	60.2	60.2	60.2	54	43.5	1	3	135	0.00	29.895 
00:55	60.2	60.2	60.2	54	43.5	1	3	112	0.00	29.895 
01:00	60.2	60.2	60.2	54	43.5	0	2	112	0.00	29.886 
01:05	60.1	60.1	60.1	54	43.4	0	2	90	0.00	29.886 
01:10	60.1	60.1	60.1	54	43.4	1	3	90	0.00	29.886 
01:15	60.1	60.1	60.1	53	42.9	1	4	90	0.00	29.882 
01:20	60.2	60.2	60.2	52	42.5	2	6	90	0.00	29.882 
01:25	60.4	60.4	60.4	53	43.2	2	4	112	0.00	29.882 
01:30	60.5	60.5	60.5	52	42.8	1	4	112	0.00	29.879 
01:35	60.5	60.5	60.5	53	43.3	1	4	112	0.00	29.879 
01:40	60.5	60.5	60.5	52	42.8	1	3	112	0.00	29.879 
01:45	60.5	60.5	60.5	52	42.8	1	3	90	0.00	29.878 
01:50	60.7	60.7	60.7	52	43.0	1	4	112	0.00	29.878 
01:55	60.7	60.7	60.7	52	43.0	1	3	90	0.00	29.878 
02:00	60.7	60.7	60.7	52	43.0	1	5	90	0.00	29.866 
02:05	60.7	60.7	60.7	52	43.0	1	4	90	0.00	29.866 
02:10	60.7	60.7	60.7	51	42.5	1	4	112	0.00	29.866 
02:15	60.9	60.9	60.9	51	42.6	1	4	112	0.00	29.869 
02:20	60.9	60.9	60.9	51	42.6	1	4	90	0.00	29.869 
02:25	61.0	61.0	61.0	52	43.2	1	5	90	0.00	29.869 
02:30	61.0	61.0	61.0	51	42.7	1	4	90	0.00	29.858 
02:35	61.0	61.0	61.0	51	42.7	0	2	112	0.00	29.858 
02:40	61.0	61.0	61.0	52	43.2	1	4	112	0.00	29.858 
02:45	61.0	61.0	61.0	52	43.2	1	2	135	0.00	29.853 
02:50	61.0	61.0	61.0	51	42.7	0	3	135	0.00	29.853 
02:55	61.0	61.0	61.0	51	42.7	1	3	90	0.00	29.853 
03:00	61.2	61.2	61.2	52	43.4	1	3	90	0.00	29.851 
03:05	61.2	61.2	61.2	52	43.4	1	4	112	0.00	29.851 
03:10	61.3	61.3	61.3	52	43.5	1	4	112	0.00	29.851 
03:15	61.3	61.3	61.3	52	43.5	1	4	112	0.00	29.851 
03:20	61.5	61.5	61.5	52	43.7	1	3	68	0.00	29.851 
03:25	61.5	61.5	61.5	52	43.7	1	5	90	0.00	29.851 
03:30	61.5	61.5	61.5	53	44.2	1	3	90	0.00	29.850 
03:35	61.5	61.5	61.5	53	44.2	0	2	90	0.00	29.850 
03:40	61.5	61.5	61.5	53	44.2	1	3	90	0.00	29.850 
03:45	61.5	61.5	61.5	54	44.7	1	3	135	0.00	29.844 
03:50	61.5	61.5	61.5	54	44.7	1	4	135	0.00	29.844 
03:55	61.5	61.5	61.5	54	44.7	1	4	90	0.00	29.844 
04:00	61.5	61.5	61.5	54	44.7	1	4	90	0.00	29.846 
04:05	61.6	61.6	61.6	55	45.3	0	1	90	0.00	29.846 
04:10	61.5	61.5	61.5	55	45.2	0	3	90	0.00	29.846 
04:15	61.6	61.6	61.6	56	45.7	1	3	90	0.00	29.845 
04:20	61.8	61.8	61.8	55	45.5	1	3	90	0.00	29.845 
04:25	62.0	62.0	62.0	59	47.5	0	2	90	0.00	29.845 
04:30	61.6	61.6	61.6	65	49.7	2	5	248	0.00	29.855 
04:35	61.2	61.2	61.2	69	50.9	2	6	248	0.00	29.855 
04:40	61.0	61.0	61.0	72	51.9	2	6	248	0.00	29.855 
04:45	61.0	61.0	61.0	74	52.6	2	5	248	0.00	29.856 
04:50	60.9	60.9	60.9	77	53.6	2	4	248	0.01	29.856 
04:55	60.1	60.1	60.1	79	53.6	2	6	248	0.01	29.856 
05:00	59.5	59.5	59.5	81	53.7	0	3	248	0.01	29.855 
05:05	58.9	58.9	58.9	83	53.7	0	3	248	0.00	29.855 
05:10	58.4	58.4	58.4	84	53.6	0	1	248	0.00	29.855 
05:15	58.1	58.1	58.1	86	53.9	0	0	---	0.02	29.858 
05:20	57.8	57.8	57.8	87	54.0	0	1	248	0.00	29.858 
05:25	57.5	57.5	57.5	88	54.0	0	0	---	0.02	29.858 
05:30	57.3	57.3	57.3	89	54.1	0	0	---	0.01	29.857 
05:35	57.2	57.2	57.2	90	54.3	0	1	248	0.02	29.857 
05:40	57.0	57.0	57.0	90	54.1	0	0	---	0.02	29.857 
05:45	56.9	56.9	56.9	90	54.0	0	0	---	0.00	29.849 
05:50	56.9	56.9	56.9	91	54.3	0	0	---	0.00	29.849 
05:55	56.7	56.7	56.7	92	54.4	0	0	---	0.01	29.849 
06:00	56.7	56.7	56.7	92	54.4	0	1	248	0.00	29.853 
06:05	56.7	56.7	56.7	92	54.4	0	1	248	0.00	29.853 
06:10	56.6	56.6	56.6	92	54.3	0	1	248	0.00	29.853 
06:15	56.6	56.6	56.6	92	54.3	0	1	248	0.00	29.860 
06:20	56.5	56.5	56.5	92	54.2	0	1	248	0.00	29.860 
06:25	56.5	56.5	56.5	92	54.2	0	0	---	0.00	29.860 
06:30	56.5	56.5	56.5	93	54.5	0	0	---	0.00	29.865 
06:35	56.3	56.3	56.3	93	54.3	0	1	248	0.00	29.865 
06:40	56.3	56.3	56.3	93	54.3	0	0	---	0.00	29.865 
06:45	56.3	56.3	56.3	93	54.3	0	0	---	0.00	29.875 
06:50	56.3	56.3	56.3	93	54.3	0	0	---	0.00	29.875 
06:55	56.3	56.3	56.3	93	54.3	0	0	---	0.00	29.875 
07:00	56.3	56.3	56.3	93	54.3	0	1	248	0.01	29.874 
07:05	56.3	56.3	56.3	94	54.6	0	1	248	0.00	29.874 
07:10	56.5	56.5	56.5	94	54.8	0	0	---	0.00	29.874 
07:15	56.3	56.3	56.3	94	54.6	0	0	---	0.00	29.876 
07:20	56.5	56.5	56.5	94	54.8	0	1	248	0.00	29.876 
07:25	56.5	56.5	56.5	94	54.8	0	1	248	0.00	29.876 
07:30	56.6	56.6	56.6	94	54.9	0	0	---	0.00	29.876 
07:35	56.9	56.9	56.9	95	55.5	0	1	248	0.00	29.876 
07:40	57.0	57.0	57.0	95	55.6	0	1	248	0.00	29.876 
07:45	57.3	57.3	57.3	95	55.9	0	1	248	0.00	29.876 
07:50	57.5	57.5	57.5	95	56.1	0	1	248	0.00	29.876 
07:55	57.6	57.6	57.6	95	56.2	0	2	248	0.00	29.876 
08:00	57.8	57.8	57.8	95	56.4	0	1	248	0.00	29.884 
08:05	58.1	58.1	58.1	95	56.7	0	1	248	0.00	29.884 
08:10	58.3	58.3	58.3	95	56.9	0	2	248	0.00	29.884 
08:15	58.4	58.4	58.4	96	57.3	0	0	---	0.00	29.882 
08:20	58.7	58.7	58.7	96	57.6	0	0	---	0.00	29.882 
08:25	58.9	58.9	58.9	96	57.8	0	0	---	0.00	29.882 
08:30	59.0	59.0	59.0	96	57.9	0	0	---	0.00	29.888 
08:35	59.0	59.0	59.0	96	57.9	0	2	248	0.00	29.888 
08:40	59.2	59.2	59.2	96	58.1	0	2	248	0.00	29.888 
08:45	59.2	59.2	59.2	96	58.1	1	4	248	0.00	29.897 
08:50	59.2	59.2	59.2	96	58.1	1	4	248	0.00	29.897 
08:55	59.3	59.3	59.3	96	58.2	1	3	248	0.00	29.897 
09:00	59.3	59.3	59.3	96	58.2	1	2	248	0.01	29.904 
09:05	59.3	59.3	59.3	96	58.2	1	4	248	0.00	29.904 
09:10	59.5	59.5	59.5	96	58.4	0	2	248	0.00	29.904 
09:15	59.5	59.5	59.5	96	58.4	1	4	248	0.00	29.907 
09:20	59.5	59.5	59.5	96	58.4	1	4	248	0.00	29.907 
09:25	59.6	59.6	59.6	96	58.5	1	4	248	0.00	29.907 
09:30	59.6	59.6	59.6	96	58.5	0	2	248	0.00	29.896 
09:35	59.8	59.8	59.8	96	58.7	1	3	248	0.00	29.896 
09:40	59.9	59.9	59.9	96	58.8	1	3	248	0.00	29.896 
09:45	59.9	59.9	59.9	96	58.8	1	3	248	0.00	29.892 
09:50	59.9	59.9	59.9	96	58.8	0	3	248	0.00	29.892 
09:55	60.1	60.1	60.1	96	59.0	0	2	248	0.00	29.892 
10:00	60.2	60.2	60.2	96	59.1	0	2	248	0.00	29.893 
10:05	60.2	60.2	60.2	96	59.1	0	3	248	0.00	29.893 
10:10	60.4	60.4	60.4	96	59.3	1	2	248	0.00	29.893 
10:15	60.4	60.4	60.4	96	59.3	0	2	248	0.00	29.888 
10:20	60.5	60.5	60.5	96	59.4	0	2	248	0.00	29.888 
10:25	60.7	60.7	60.7	96	59.6	0	3	248	0.00	29.888 
10:30	60.9	60.9	60.9	96	59.7	0	3	248	0.00	29.893 
10:35	61.0	61.0	61.0	96	59.8	1	2	248	0.00	29.893 
10:40	61.0	61.0	61.0	96	59.8	0	3	248	0.00	29.893 
10:45	61.0	61.0	61.0	96	59.8	1	4	248	0.00	29.904 
10:50	61.2	61.2	61.2	96	60.0	1	4	248	0.00	29.904 
10:55	61.2	61.2	61.2	96	60.0	1	3	248	0.00	29.904 
11:00	61.3	61.3	61.3	96	60.1	1	3	248	0.00	29.911 
11:05	61.5	61.5	61.5	96	60.3	0	2	248	0.00	29.911 
11:10	61.5	61.5	61.5	96	60.3	1	3	248	0.00	29.911 
11:15	61.6	61.6	61.6	96	60.4	1	3	248	0.00	29.921 
11:20	61.6	61.6	61.6	96	60.4	1	3	248	0.00	29.921 
11:25	61.6	61.6	61.6	96	60.4	1	4	248	0.00	29.921 
11:30	61.8	61.8	61.8	96	60.6	1	4	248	0.00	29.920 
11:35	62.0	62.0	62.0	96	60.8	1	5	248	0.00	29.920 
11:40	62.0	62.0	62.0	96	60.8	1	3	248	0.00	29.920 
11:45	62.1	62.1	62.1	96	60.9	1	4	248	0.00	29.926 
11:50	62.1	62.1	62.1	96	60.9	1	5	248	0.00	29.926 
11:55	62.1	62.1	62.1	96	60.9	0	2	248	0.00	29.926 
12:00	62.3	62.3	62.3	96	61.1	1	4	248	0.00	29.935 
12:05	62.4	62.4	62.4	96	61.2	1	4	248	0.00	29.935 
12:10	62.6	62.6	62.6	95	61.1	1	3	248	0.00	29.935 
12:15	62.7	62.7	62.7	95	61.2	1	4	248	0.00	29.933 
12:20	63.2	63.2	63.2	95	61.7	1	4	225	0.00	29.933 
12:25	63.7	63.7	63.7	95	62.2	2	5	248	0.00	29.933 
12:30	64.0	64.0	64.0	94	62.2	1	3	248	0.00	29.935 
12:35	64.0	64.0	64.0	93	61.9	2	6	248	0.00	29.935 
12:40	64.3	64.3	64.3	92	61.9	2	4	248	0.00	29.935 
12:45	64.8	64.8	64.8	91	62.1	2	5	248	0.00	29.934 
12:50	65.3	65.3	65.3	89	62.0	2	5	248	0.00	29.934 
12:55	65.8	65.8	65.8	88	62.1	1	5	225	0.00	29.934 
13:00	66.4	66.4	66.4	86	62.1	2	7	270	0.00	29.929 
13:05	66.6	66.6	66.6	83	61.3	2	7	248	0.00	29.929 
13:10	66.6	66.6	66.6	82	60.9	2	9	248	0.00	29.929 
13:15	66.9	66.9	66.9	81	60.9	2	5	248	0.00	29.930 
13:20	67.3	67.3	67.3	80	60.9	2	5	248	0.00	29.930 
13:25	67.8	67.8	67.8	78	60.7	2	5	248	0.00	29.930 
13:30	68.3	68.3	68.3	76	60.4	2	7	248	0.00	29.920 
13:35	68.6	68.6	68.6	75	60.3	1	4	248	0.00	29.920 
13:40	69.3	69.3	69.3	76	61.4	2	4	248	0.00	29.920 
13:45	70.1	70.1	70.1	73	61.0	2	5	248	0.00	29.914 
13:50	70.6	70.6	70.6	70	60.3	2	5	248	0.00	29.914 
13:55	70.8	70.8	70.8	69	60.1	2	5	270	0.00	29.914 
14:00	70.8	70.8	70.8	69	60.1	2	5	270	0.00	29.912 
14:05	71.1	71.1	71.1	70	60.8	2	5	248	0.00	29.912 
14:10	71.1	71.1	71.1	69	60.4	1	5	270	0.00	29.912 
14:15	71.6	71.6	71.6	68	60.5	2	6	248	0.00	29.902 
14:20	72.0	72.0	72.0	66	60.0	2	7	248	0.00	29.902 
14:25	71.8	71.8	71.8	64	59.0	2	6	248	0.00	29.902 
14:30	71.6	71.6	71.6	64	58.8	2	5	248	0.00	29.918 
14:35	71.1	71.1	71.1	64	58.3	3	5	248	0.00	29.918 
14:40	71.1	71.1	71.1	67	59.6	2	7	248	0.00	29.918 
14:45	71.3	71.3	71.3	64	58.5	3	7	248	0.00	29.929 
14:50	71.6	71.6	71.6	65	59.2	2	4	248	0.00	29.929 
14:55	72.3	72.3	72.3	65	59.9	2	4	248	0.00	29.929 
15:00	72.7	72.7	72.7	63	59.4	2	5	248	0.00	29.914 
15:05	72.7	72.7	72.7	59	57.5	3	10	270	0.00	29.914 
15:10	72.8	72.8	72.8	59	57.6	2	5	248	0.00	29.914 
15:15	73.0	73.0	73.0	56	56.4	3	5	248	0.00	29.918 
15:20	72.7	72.7	72.7	58	57.1	2	4	248	0.00	29.918 
15:25	72.1	72.1	72.1	58	56.5	2	6	248	0.00	29.918 
15:30	71.8	71.8	71.8	59	56.7	1	3	248	0.00	29.931 
15:35	71.3	71.3	71.3	60	56.7	1	3	248	0.00	29.931 
15:40	71.8	71.8	71.8	58	56.2	2	4	248	0.00	29.931 
15:45	72.7	72.7	72.7	52	54.0	3	6	270	0.00	29.928 
15:50	73.0	73.0	73.0	49	52.7	3	9	248	0.00	29.928 
15:55	73.0	73.0	73.0	48	52.1	3	8	248	0.00	29.928 
16:00	72.8	72.8	72.8	47	51.4	3	9	248	0.00	29.926 
16:05	72.8	72.8	72.8	47	51.4	3	9	248	0.00	29.926 
16:10	72.8	72.8	72.8	46	50.8	3	6	248	0.00	29.926 
16:15	72.3	72.3	72.3	45	49.8	4	7	270	0.00	29.928 
16:20	72.0	72.0	72.0	44	48.9	3	6	270	0.00	29.928 
16:25	71.5	71.5	71.5	44	48.4	4	7	270	0.00	29.928 
16:30	71.1	71.1	71.1	43	47.5	3	7	270	0.00	29.919 
16:35	70.8	70.8	70.8	43	47.2	3	5	292	0.00	29.919 
16:40	70.4	70.4	70.4	43	46.8	3	6	270	0.00	29.919 
16:45	70.1	70.1	70.1	44	47.2	3	5	270	0.00	29.918 
16:50	69.8	69.8	69.8	43	46.3	3	6	270	0.00	29.918 
16:55	69.6	69.6	69.6	43	46.1	3	6	270	0.00	29.918 
17:00	69.3	69.3	69.3	39	43.3	4	6	270	0.00	29.949 
17:05	69.1	69.1	69.1	39	43.1	3	7	315	0.00	29.949 
17:10	68.6	68.6	68.6	38	42.0	4	7	270	0.00	29.949 
17:15	68.4	68.4	68.4	38	41.8	3	6	248	0.00	29.958 
17:20	68.1	68.1	68.1	36	40.1	4	7	270	0.00	29.958 
17:25	67.9	67.9	67.9	37	40.7	3	7	270	0.00	29.958 
17:30	67.8	67.8	67.8	39	41.9	2	4	315	0.00	29.961 
17:35	67.6	67.6	67.6	40	42.4	2	4	315	0.00	29.961 
17:40	67.3	67.3	67.3	39	41.5	3	6	270	0.00	29.961 
17:45	66.9	66.9	66.9	39	41.1	2	6	270	0.00	29.956 
17:50	66.8	66.8	66.8	40	41.7	2	4	248	0.00	29.956 
17:55	66.6	66.6	66.6	41	42.2	3	6	248	0.00	29.956 
18:00	66.4	66.4	66.4	41	42.0	3	5	270	0.00	29.971 
18:05	66.4	66.4	66.4	42	42.6	1	3	270	0.00	29.971 
18:10	66.1	66.1	66.1	35	37.6	3	7	270	0.00	29.971 
18:15	66.0	66.0	66.0	33	36.1	2	5	270	0.00	29.979 
18:20	65.8	65.8	65.8	35	37.4	1	3	248	0.00	29.979 
18:25	65.6	65.6	65.6	34	36.5	2	4	248	0.00	29.979 
18:30	65.5	65.5	65.5	35	37.1	2	4	248	0.00	29.982 
18:35	65.3	65.3	65.3	36	37.7	1	2	248	0.00	29.982 
18:40	65.2	65.2	65.2	36	37.6	1	2	248	0.00	29.982 
18:45	65.0	65.0	65.0	37	38.1	1	4	248	0.00	29.975 
18:50	64.8	64.8	64.8	38	38.6	1	2	248	0.00	29.975 
18:55	64.7	64.7	64.7	40	39.8	1	4	248	0.00	29.975 
19:00	64.5	64.5	64.5	40	39.6	1	3	248	0.00	29.963 
19:05	64.3	64.3	64.3	41	40.1	1	3	248	0.00	29.963 
19:10	64.2	64.2	64.2	42	40.6	0	2	248	0.00	29.963 
19:15	63.9	63.9	63.9	43	41.0	0	2	248	0.00	29.970 
19:20	63.7	63.7	63.7	43	40.8	0	2	248	0.00	29.970 
19:25	63.5	63.5	63.5	44	41.2	0	1	248	0.00	29.970 
19:30	63.4	63.4	63.4	43	40.5	0	1	248	0.00	29.988 
19:35	63.2	63.2	63.2	44	40.9	0	3	248	0.00	29.988 
19:40	63.2	63.2	63.2	45	41.5	0	1	248	0.00	29.988 
19:45	63.1	63.1	63.1	44	40.8	1	3	248	0.00	29.987 
19:50	62.9	62.9	62.9	45	41.2	0	1	248	0.00	29.987 
19:55	62.7	62.7	62.7	46	41.6	0	2	248	0.00	29.987 
20:00	62.6	62.6	62.6	46	41.5	0	1	248	0.00	29.988 
20:05	62.3	62.3	62.3	47	41.8	0	1	248	0.00	29.988 
20:10	62.1	62.1	62.1	48	42.2	0	1	248	0.00	29.988 
20:15	62.0	62.0	62.0	49	42.6	0	1	248	0.00	29.991 
20:20	61.8	61.8	61.8	50	43.0	0	1	248	0.00	29.991 
20:25	61.5	61.5	61.5	49	42.2	0	1	248	0.00	29.991 
20:30	61.3	61.3	61.3	49	42.0	1	3	248	0.00	30.005 
20:35	61.3	61.3	61.3	47	40.9	0	2	248	0.00	30.005 
20:40	61.2	61.2	61.2	42	37.9	1	2	315	0.00	30.005 
20:45	61.2	61.2	61.2	43	38.5	0	1	315	0.00	29.993 
20:50	61.0	61.0	61.0	44	38.9	0	1	315	0.00	29.993 
20:55	60.7	60.7	60.7	44	38.7	0	1	315	0.00	29.993 
21:00	60.5	60.5	60.5	43	37.9	0	0	---	0.00	29.996 
21:05	60.2	60.2	60.2	43	37.6	0	0	---	0.00	29.996 
21:10	60.1	60.1	60.1	43	37.5	0	2	315	0.00	29.996 
21:15	60.1	60.1	60.1	43	37.5	0	1	315	0.00	29.996 
21:20	59.9	59.9	59.9	44	37.9	0	1	315	0.00	29.996 
21:25	59.8	59.8	59.8	45	38.4	0	1	315	0.00	29.996 
21:30	59.6	59.6	59.6	45	38.2	0	2	315	0.00	30.014 
21:35	59.5	59.5	59.5	45	38.1	0	2	315	0.00	30.014 
21:40	59.5	59.5	59.5	46	38.7	0	2	315	0.00	30.014 
21:45	59.2	59.2	59.2	47	39.0	1	3	315	0.00	30.034 
21:50	59.2	59.2	59.2	43	36.7	2	5	270	0.00	30.034 
21:55	59.0	59.0	59.0	43	36.5	2	4	292	0.00	30.034 
22:00	58.7	58.7	58.7	44	36.8	1	3	292	0.00	30.034 
22:05	58.4	58.4	58.4	44	36.6	1	4	292	0.00	30.034 
22:10	58.3	58.3	58.3	44	36.5	1	2	292	0.00	30.034 
22:15	58.1	58.1	58.1	43	35.7	2	4	292	0.00	30.034 
22:20	58.1	58.1	58.1	44	36.3	1	3	292	0.00	30.034 
22:25	58.0	58.0	58.0	44	36.2	1	3	292	0.00	30.034 
22:30	57.8	57.8	57.8	44	36.0	1	3	292	0.00	30.039 
22:35	57.8	57.8	57.8	45	36.6	1	3	292	0.00	30.039 
22:40	57.6	57.6	57.6	46	37.0	1	2	292	0.00	30.039 
22:45	57.5	57.5	57.5	46	36.9	0	3	292	0.00	30.051 
22:50	57.3	57.3	57.3	47	37.2	0	2	292	0.00	30.051 
22:55	57.3	57.3	57.3	47	37.2	1	3	292	0.00	30.051 
23:00	57.2	57.2	57.2	48	37.7	0	1	292	0.00	30.051 
23:05	57.0	57.0	57.0	48	37.5	0	2	292	0.00	30.051 
23:10	56.9	56.9	56.9	50	38.5	0	1	292	0.00	30.051 
23:15	56.7	56.7	56.7	49	37.8	0	2	292	0.00	30.043 
23:20	56.7	56.7	56.7	49	37.8	0	1	292	0.00	30.043 
23:25	56.6	56.6	56.6	49	37.7	0	1	292	0.00	30.043 
23:30	56.5	56.5	56.5	48	37.0	0	1	292	0.00	30.029 
23:35	56.5	56.5	56.5	50	38.1	0	1	292	0.00	30.029 
23:40	56.3	56.3	56.3	49	37.4	0	1	292	0.00	30.029 
23:45	56.2	56.2	56.2	49	37.3	0	2	292	0.00	30.019 
23:50	56.2	56.2	56.2	50	37.8	0	1	292	0.00	30.019 
23:55	56.0	56.0	56.0	50	37.6	0	1	292	0.00	30.019 

CoCoRaHS
IN-AL-39
A2 Web Hosting
Creative Commons License
GoDaddy
search engine by freefind advanced

loaded 2018-11-21 00:59:36 • last modified 2010-11-18 10:43:29
Privacy PolicyDisclaimer
• wx.awcolley.com is powered by PmWiki v.2002016 •
• all content (unless otherwise noted) © 2018 A W Colley